Friday, July 20, 2018, 4:56 AM EDT
Back to Local

KMFV, Melfa / Accomack Airport

Location: Melfa, VA, United States Lat: 37.65
Local Time: 4:56 AM EDT ( 8:56 GMT) Lon: -75.767
Time Zone: US/Eastern Elev: 49 ft

Show me the last for .
Show Decoded

2018-07-20 04:35 METAR KMFV 200835Z AUTO 00000KT 10SM CLR 17/17 A3010 RMK AO2 T01740168 =
2018-07-20 04:15 METAR KMFV 200815Z AUTO 00000KT 10SM CLR 17/16 A3010 RMK AO2 T01670159 =
2018-07-20 03:55 METAR KMFV 200755Z AUTO 00000KT 10SM CLR 17/16 A3010 RMK AO2 T01680160 =
2018-07-20 03:35 METAR KMFV 200735Z AUTO 00000KT 10SM CLR 17/16 A3009 RMK AO2 T01690158 =
2018-07-20 03:15 METAR KMFV 200715Z AUTO 00000KT 10SM CLR 17/16 A3010 RMK AO2 T01710161 =
2018-07-20 02:55 METAR KMFV 200655Z AUTO 00000KT 10SM CLR 17/16 A3009 RMK AO2 T01730163 =
2018-07-20 02:35 METAR KMFV 200635Z AUTO 00000KT 10SM CLR 18/17 A3010 RMK AO2 T01760165 =
2018-07-20 02:15 METAR KMFV 200615Z AUTO 00000KT 10SM CLR 18/17 A3010 RMK AO2 T01810165 =
2018-07-20 01:55 METAR KMFV 200555Z AUTO 00000KT 10SM CLR 18/17 A3011 RMK AO2 T01820166 10251
                 20181 =
2018-07-20 01:35 METAR KMFV 200535Z AUTO 14003KT 10SM CLR 18/17 A3011 RMK AO2 T01820167 =
2018-07-20 01:15 METAR KMFV 200515Z AUTO 00000KT 10SM CLR 19/17 A3011 RMK AO2 T01850167 =
2018-07-20 00:55 METAR KMFV 200455Z AUTO 13003KT 10SM CLR 19/17 A3011 RMK AO2 T01880167 402970182
                 =
2018-07-20 00:35 METAR KMFV 200435Z AUTO 13004KT 10SM CLR 19/17 A3011 RMK AO2 T01900166 =
2018-07-20 00:15 METAR KMFV 200415Z AUTO 13004KT 10SM CLR 19/17 A3011 RMK AO2 T01900165 =
2018-07-19 23:55 METAR KMFV 200355Z AUTO 13004KT 10SM CLR 19/17 A3011 RMK AO2 T01910166 =
2018-07-19 23:35 METAR KMFV 200335Z AUTO 13004KT 10SM CLR 19/17 A3011 RMK AO2 T01930167 =
2018-07-19 23:15 METAR KMFV 200315Z AUTO 13004KT 10SM CLR 20/17 A3011 RMK AO2 T02010167 =
2018-07-19 22:55 METAR KMFV 200255Z AUTO 13004KT 10SM CLR 20/17 A3011 RMK AO2 T02020167 =
2018-07-19 22:35 METAR KMFV 200235Z AUTO 13005KT 10SM CLR 20/17 A3011 RMK AO2 T02010167 =
2018-07-19 22:15 METAR KMFV 200215Z AUTO 13004KT 10SM CLR 20/17 A3010 RMK AO2 T02010167 =
2018-07-19 21:55 METAR KMFV 200155Z AUTO 12004KT 10SM CLR 21/17 A3010 RMK AO2 T02050168 =
2018-07-19 21:35 METAR KMFV 200135Z AUTO 12003KT 10SM CLR 21/17 A3009 RMK AO2 T02100169 =
2018-07-19 21:15 METAR KMFV 200115Z AUTO 11003KT 10SM CLR 22/17 A3009 RMK AO2 T02160168 =
2018-07-19 20:55 METAR KMFV 200055Z AUTO 00000KT 10SM CLR 23/17 A3008 RMK AO2 T02340168 =
2018-07-19 20:35 METAR KMFV 200035Z AUTO 00000KT 10SM CLR 24/17 A3008 RMK AO2 T02380166 =
2018-07-19 20:15 METAR KMFV 200015Z AUTO 00000KT 10SM CLR 24/16 A3008 RMK AO2 T02440163 =
2018-07-19 19:55 METAR KMFV 192355Z AUTO 00000KT 10SM CLR 25/16 A3008 RMK AO2 T02520160 10295
                 20252 =
2018-07-19 19:35 METAR KMFV 192335Z AUTO 00000KT 10SM CLR 26/16 A3007 RMK AO2 T02600160 =
2018-07-19 19:15 METAR KMFV 192315Z AUTO 13003KT 10SM CLR 27/16 A3007 RMK AO2 T02650156 =
2018-07-19 18:55 METAR KMFV 192255Z AUTO 12003KT 10SM CLR 27/15 A3007 RMK AO2 T02700148 =
2018-07-19 18:35 METAR KMFV 192235Z AUTO 11003KT 10SM CLR 28/15 A3006 RMK AO2 T02750145 =
2018-07-19 18:15 METAR KMFV 192215Z AUTO 12004KT 10SM CLR 28/14 A3006 RMK AO2 T02800138 =
2018-07-19 17:55 METAR KMFV 192155Z AUTO 11006KT 10SM CLR 28/13 A3006 RMK AO2 T02810128 =
2018-07-19 17:35 METAR KMFV 192135Z AUTO 11006KT 10SM CLR 28/14 A3006 RMK AO2 T02810139 =
2018-07-19 17:15 METAR KMFV 192115Z AUTO 11006KT 050V150 10SM CLR 28/14 A3007 RMK AO2 T02840138 =
2018-07-19 16:55 METAR KMFV 192055Z AUTO 12006KT 10SM CLR 29/15 A3007 RMK AO2 T02860145 =
2018-07-19 16:35 METAR KMFV 192035Z AUTO 12004KT 10SM CLR 29/14 A3008 RMK AO2 T02880139 =
2018-07-19 16:15 METAR KMFV 192015Z AUTO 12007KT 10SM CLR 29/12 A3008 RMK AO2 T02940122 =
2018-07-19 15:55 METAR KMFV 191955Z AUTO 09005KT 10SM CLR 29/14 A3008 RMK AO2 T02930137 =
2018-07-19 15:35 METAR KMFV 191935Z AUTO 14008KT 060V180 10SM CLR 29/13 A3008 RMK AO2 T02870132 =
2018-07-19 15:15 METAR KMFV 191915Z AUTO 11008KT 10SM CLR 29/14 A3008 RMK AO2 T02900137 =
2018-07-19 14:55 METAR KMFV 191855Z AUTO 08008KT 060V150 10SM CLR 29/14 A3008 RMK AO2 T02870138 =
2018-07-19 14:35 METAR KMFV 191835Z AUTO 10007KT 090V150 10SM CLR 29/14 A3009 RMK AO2 T02940143 =
2018-07-19 14:15 METAR KMFV 191815Z AUTO 08007KT 10SM CLR 29/13 A3009 RMK AO2 T02860134 =
2018-07-19 13:55 METAR KMFV 191755Z AUTO 10008KT 10SM CLR 29/14 A3009 RMK AO2 T02900138 10297
                 20235 =
2018-07-19 13:35 METAR KMFV 191735Z AUTO 09006KT 10SM CLR 29/14 A3009 RMK AO2 T02930142 =
2018-07-19 13:15 METAR KMFV 191715Z AUTO 09005KT 10SM CLR 29/14 A3009 RMK AO2 T02860138 =
2018-07-19 12:55 METAR KMFV 191655Z AUTO 07008KT 10SM CLR 28/13 A3009 RMK AO2 T02780133 =
2018-07-19 12:35 METAR KMFV 191635Z AUTO 07010KT 10SM CLR 28/14 A3009 RMK AO2 T02810141 =
2018-07-19 12:15 METAR KMFV 191615Z AUTO 07011G14KT 10SM CLR 29/16 A3009 RMK AO2 T02850164 =
2018-07-19 11:55 METAR KMFV 191555Z AUTO 06010KT 10SM CLR 28/17 A3009 RMK AO2 T02810165 =
2018-07-19 11:35 METAR KMFV 191535Z AUTO 08008KT 060V120 10SM CLR 28/17 A3009 RMK AO2 T02830170 =
2018-07-19 11:15 METAR KMFV 191515Z AUTO 08009KT 050V150 10SM SCT080 29/19 A3009 RMK AO2
                 T02850185 =
2018-07-19 10:55 METAR KMFV 191455Z AUTO 10005KT 10SM SCT028 28/20 A3009 RMK AO2 T02840200 =
2018-07-19 10:35 METAR KMFV 191435Z AUTO 07005KT 10SM SCT028 28/20 A3009 RMK AO2 T02770200 =
2018-07-19 10:15 METAR KMFV 191415Z AUTO 07006KT 10SM SCT024 27/20 A3008 RMK AO2 T02720201 =
2018-07-19 09:55 METAR KMFV 191355Z AUTO 04006KT 10SM SCT022 27/21 A3007 RMK AO2 T02660205 =
2018-07-19 09:35 METAR KMFV 191335Z AUTO 04006KT 10SM CLR 26/20 A3007 RMK AO2 T02630203 =
2018-07-19 09:15 METAR KMFV 191315Z AUTO 03004KT 10SM CLR 26/21 A3007 RMK AO2 T02600211 =
2018-07-19 08:55 METAR KMFV 191255Z AUTO 03004KT 10SM CLR 25/22 A3006 RMK AO2 T02540217 =
2018-07-19 08:35 METAR KMFV 191235Z AUTO 02003KT 10SM CLR 25/22 A3005 RMK AO2 T02520221 =
2018-07-19 08:15 METAR KMFV 191215Z AUTO 00000KT 10SM CLR 25/22 A3005 RMK AO2 T02470220 =
2018-07-19 07:55 METAR KMFV 191155Z AUTO 00000KT 10SM CLR 23/22 A3004 RMK AO2 T02330218 10233
                 20182 =
2018-07-19 07:35 METAR KMFV 191135Z AUTO 00000KT 10SM CLR 22/21 A3004 RMK AO2 T02190209 =
2018-07-19 07:15 METAR KMFV 191115Z AUTO 08003KT 10SM CLR 21/20 A3003 RMK AO2 T02070201 =
2018-07-19 06:55 METAR KMFV 191055Z AUTO 00000KT 10SM CLR 19/19 A3002 RMK AO2 T01900186 =
2018-07-19 06:35 METAR KMFV 191035Z AUTO 00000KT 10SM CLR 19/18 A3002 RMK AO2 T01870184 =
2018-07-19 06:15 METAR KMFV 191015Z AUTO 00000KT 4SM BR CLR 18/18 A3002 RMK AO2 T01830181 =
2018-07-19 05:55 METAR KMFV 190955Z AUTO 00000KT 10SM CLR 19/18 A3001 RMK AO2 T01870184 =
2018-07-19 05:35 METAR KMFV 190935Z AUTO 00000KT 7SM CLR 19/19 A3001 RMK AO2 T01890187 =
2018-07-19 05:15 METAR KMFV 190915Z AUTO 00000KT 3/4SM BR VV005 19/19 A3000 RMK AO2 VIS 1/4V5
                 T01900188 =

Support USWX by starting your Amazon purchase here.